createdAt,value
2023-03-16T00:01:26.493Z,100846.94
2023-03-16T00:06:28.349Z,100841.56
2023-03-16T00:11:32.772Z,100842.41
2023-03-16T00:16:35.544Z,100845.22
2023-03-16T00:21:37.333Z,100848.75
2023-03-16T00:26:39.080Z,100845.16
2023-03-16T00:31:44.115Z,100854.19
2023-03-16T00:36:45.931Z,100853.75
2023-03-16T00:41:47.979Z,100848.31
2023-03-16T00:46:49.636Z,100852.47
2023-03-16T00:51:52.218Z,100857.44
2023-03-16T00:56:54.682Z,100865.59
2023-03-16T01:01:56.462Z,100864.13
2023-03-16T01:06:58.389Z,100868.78
2023-03-16T01:12:00.032Z,100871.44
2023-03-16T01:17:06.559Z,100878.66
2023-03-16T01:22:09.878Z,100885.19
2023-03-16T01:27:13.891Z,100887.81
2023-03-16T01:32:16.334Z,100895.94
2023-03-16T01:37:18.267Z,100914.78
2023-03-16T01:42:29.294Z,100902.72
2023-03-16T01:47:38.356Z,100896.56
2023-03-16T01:52:43.058Z,100903.78
2023-03-16T01:57:46.965Z,100903.66
2023-03-16T02:02:58.569Z,100901.34
2023-03-16T02:08:10.581Z,100903.47
2023-03-16T02:13:12.661Z,100896.72
2023-03-16T02:18:15.104Z,100904.78
2023-03-16T02:23:19.520Z,100902.69
2023-03-16T02:28:31.190Z,100893.16
2023-03-16T02:33:33.969Z,100908.31
2023-03-16T02:38:36.145Z,100903.81
2023-03-16T02:43:41.414Z,100904.94
2023-03-16T02:49:08.110Z,100905.94
2023-03-16T02:54:11.987Z,100908.19
2023-03-16T02:59:14.917Z,100902.75
2023-03-16T03:04:17.189Z,100910.38
2023-03-16T03:09:19.564Z,100904.50
2023-03-16T03:14:23.069Z,100902.72
2023-03-16T03:19:26.098Z,100916.31
2023-03-16T03:24:28.208Z,100913.41
2023-03-16T03:29:34.592Z,100918.75
2023-03-16T03:34:36.593Z,100916.25
2023-03-16T03:39:40.438Z,100918.69
2023-03-16T03:44:42.479Z,100917.53
2023-03-16T03:49:45.515Z,100933.31
2023-03-16T03:54:47.657Z,100934.59
2023-03-16T03:59:51.647Z,100948.03
2023-03-16T04:05:22.628Z,100933.19
2023-03-16T04:10:30.359Z,100939.06
2023-03-16T04:15:33.686Z,100935.75
2023-03-16T04:20:44.901Z,100933.69
2023-03-16T04:25:52.691Z,100935.00
2023-03-16T04:31:01.950Z,100929.66
2023-03-16T04:36:10.686Z,100937.72
2023-03-16T04:41:13.420Z,100929.59
2023-03-16T04:46:24.889Z,100938.31
2023-03-16T04:51:27.705Z,100934.53
2023-03-16T04:56:48.774Z,100940.69
2023-03-16T05:02:04.110Z,100930.94
2023-03-16T05:07:06.627Z,100931.00
2023-03-16T05:12:14.618Z,100938.78
2023-03-16T05:17:22.246Z,100943.44
2023-03-16T05:22:25.853Z,100933.84
2023-03-16T05:27:50.681Z,100943.31
2023-03-16T05:33:00.169Z,100955.09
2023-03-16T05:38:03.392Z,100950.00
2023-03-16T05:43:09.462Z,100950.75
2023-03-16T05:48:17.688Z,100955.94
2023-03-16T05:53:28.844Z,100967.28
2023-03-16T05:58:35.723Z,100959.34
2023-03-16T06:03:41.926Z,100969.34
2023-03-16T06:08:47.605Z,100974.47
2023-03-16T06:13:49.802Z,100980.22
2023-03-16T06:18:52.355Z,100971.34
2023-03-16T06:23:54.581Z,100978.66
2023-03-16T06:28:56.483Z,100969.34
2023-03-16T06:33:59.753Z,100978.16
2023-03-16T06:39:01.918Z,100976.41
2023-03-16T06:44:15.841Z,100974.06
2023-03-16T06:49:28.267Z,100978.06
2023-03-16T06:54:32.460Z,100983.75
2023-03-16T06:59:35.197Z,100993.25
2023-03-16T07:04:36.868Z,100984.91
2023-03-16T07:09:41.681Z,100986.00
2023-03-16T07:14:43.861Z,100992.09
2023-03-16T07:19:47.471Z,100994.06
2023-03-16T07:24:56.072Z,100996.25
2023-03-16T07:30:00.403Z,100991.94
2023-03-16T07:35:02.203Z,101007.56
2023-03-16T07:40:09.211Z,100999.34
2023-03-16T07:45:12.383Z,100989.28
2023-03-16T07:50:16.940Z,100993.41
2023-03-16T07:55:21.047Z,100990.84
2023-03-16T08:00:25.905Z,101000.34
2023-03-16T08:05:28.058Z,100994.63
2023-03-16T08:10:34.662Z,101001.13
2023-03-16T08:15:46.430Z,101001.84
2023-03-16T08:20:57.413Z,100998.59
2023-03-16T08:26:01.126Z,100999.47
2023-03-16T08:31:03.126Z,101004.69
2023-03-16T08:36:28.963Z,101003.53
2023-03-16T08:41:33.079Z,100998.25
2023-03-16T08:46:40.686Z,101001.72
2023-03-16T08:51:44.527Z,100997.69
2023-03-16T08:56:46.595Z,101006.56
2023-03-16T09:01:48.342Z,101004.19
2023-03-16T09:07:07.894Z,101005.34
2023-03-16T09:12:12.365Z,101001.22
2023-03-16T09:17:14.021Z,101007.41
2023-03-16T09:22:16.862Z,101011.19
2023-03-16T09:27:19.022Z,101002.31
2023-03-16T09:32:21.153Z,101006.00
2023-03-16T09:37:23.458Z,100995.53
2023-03-16T09:42:37.773Z,100999.59
2023-03-16T09:47:40.623Z,100997.81
2023-03-16T09:52:42.182Z,100993.75
2023-03-16T09:57:46.095Z,100991.81
2023-03-16T10:03:17.784Z,100984.00
2023-03-16T10:08:26.678Z,100989.50
2023-03-16T10:13:50.406Z,100986.38
2023-03-16T10:18:58.941Z,100989.00
2023-03-16T10:24:02.432Z,100991.66
2023-03-16T10:29:12.744Z,100992.03
2023-03-16T10:34:15.304Z,100984.94
2023-03-16T10:39:17.835Z,100985.78
2023-03-16T10:44:24.705Z,100977.72
2023-03-16T10:49:28.534Z,100972.94
2023-03-16T10:54:40.711Z,100973.09
2023-03-16T10:59:49.858Z,100970.41
2023-03-16T11:04:53.170Z,100962.69
2023-03-16T11:09:59.811Z,100966.50
2023-03-16T11:15:07.474Z,100953.81
2023-03-16T11:20:17.982Z,100936.63
2023-03-16T11:25:31.168Z,100941.53
2023-03-16T11:30:40.524Z,100918.56
2023-03-16T11:35:56.605Z,100918.22
2023-03-16T11:41:03.831Z,100913.81
2023-03-16T11:46:23.065Z,100910.97
2023-03-16T11:51:36.135Z,100912.63
2023-03-16T11:56:43.418Z,100909.06
2023-03-16T12:02:03.461Z,100903.31
2023-03-16T12:07:20.576Z,100894.66
2023-03-16T12:12:25.013Z,100883.94
2023-03-16T12:17:30.628Z,100879.00
2023-03-16T12:22:37.357Z,100880.09
2023-03-16T12:27:38.963Z,100866.53
2023-03-16T12:33:21.788Z,100862.53
2023-03-16T12:38:46.952Z,100860.31
2023-03-16T12:44:12.658Z,100861.41
2023-03-16T12:49:15.109Z,100849.44
2023-03-16T12:54:25.419Z,100846.91
2023-03-16T12:59:38.280Z,100839.09
2023-03-16T13:04:42.526Z,100836.53
2023-03-16T13:09:49.653Z,100831.72
2023-03-16T13:14:54.879Z,100823.41
2023-03-16T13:20:01.081Z,100821.47
2023-03-16T13:25:23.459Z,100819.75
2023-03-16T13:30:33.093Z,100812.22
2023-03-16T13:35:39.319Z,100809.88
2023-03-16T13:40:46.411Z,100805.84
2023-03-16T13:45:48.469Z,100799.59
2023-03-16T13:50:58.794Z,100791.59
2023-03-16T13:56:04.395Z,100796.03
2023-03-16T14:01:26.737Z,100783.06
2023-03-16T14:06:31.457Z,100783.78
2023-03-16T14:11:33.182Z,100776.44
2023-03-16T14:16:36.864Z,100763.28
2023-03-16T14:21:49.752Z,100769.78
2023-03-16T14:26:53.846Z,100766.44
2023-03-16T14:31:55.602Z,100772.44
2023-03-16T14:37:10.444Z,100767.47
2023-03-16T14:42:28.881Z,100767.81
2023-03-16T14:47:41.626Z,100765.13
2023-03-16T14:52:45.678Z,100755.63
2023-03-16T14:57:47.342Z,100759.28
2023-03-16T15:02:59.123Z,100752.66
2023-03-16T15:08:00.919Z,100754.16
2023-03-16T15:13:13.013Z,100752.44
2023-03-16T15:18:14.732Z,100739.38
2023-03-16T15:23:17.164Z,100736.94
2023-03-16T15:28:21.037Z,100740.34
2023-03-16T15:33:23.464Z,100732.91
2023-03-16T15:38:36.773Z,100731.81
2023-03-16T15:43:39.570Z,100741.09
2023-03-16T15:48:41.308Z,100738.31
2023-03-16T15:54:08.547Z,100725.59
2023-03-16T15:59:16.967Z,100708.28
2023-03-16T16:04:21.091Z,100703.78
2023-03-16T16:09:22.997Z,100719.53
2023-03-16T16:14:26.621Z,100727.56
2023-03-16T16:19:30.043Z,100726.34
2023-03-16T16:24:31.704Z,100724.53
2023-03-16T16:29:35.060Z,100736.47
2023-03-16T16:34:36.708Z,100743.00
2023-03-16T16:39:38.373Z,100741.88
2023-03-16T16:44:40.061Z,100743.22
2023-03-16T16:49:41.729Z,100737.69
2023-03-16T16:54:43.384Z,100741.94
2023-03-16T16:59:47.083Z,100732.53
2023-03-16T17:04:50.735Z,100728.31
2023-03-16T17:09:52.497Z,100725.34
2023-03-16T17:14:54.643Z,100734.09
2023-03-16T17:19:56.314Z,100731.13
2023-03-16T17:24:58.613Z,100726.41
2023-03-16T17:30:00.743Z,100741.56
2023-03-16T17:35:02.472Z,100736.97
2023-03-16T17:40:04.493Z,100757.34
2023-03-16T17:45:09.851Z,100738.41
2023-03-16T17:50:26.782Z,100724.84
2023-03-16T17:55:28.680Z,100719.81
2023-03-16T18:00:32.711Z,100717.47
2023-03-16T18:05:35.587Z,100715.22
2023-03-16T18:10:37.412Z,100719.94
2023-03-16T18:15:39.867Z,100718.66
2023-03-16T18:20:41.660Z,100704.94
2023-03-16T18:25:43.955Z,100705.47
2023-03-16T18:30:47.513Z,100701.31
2023-03-16T18:35:51.059Z,100684.06
2023-03-16T18:40:52.760Z,100708.16
2023-03-16T18:45:55.033Z,100705.91
2023-03-16T18:50:57.124Z,100692.53
2023-03-16T18:55:58.821Z,100689.00
2023-03-16T19:01:01.414Z,100683.94
2023-03-16T19:06:03.298Z,100684.16
2023-03-16T19:11:05.053Z,100691.22
2023-03-16T19:16:10.307Z,100692.41
2023-03-16T19:21:18.440Z,100689.22
2023-03-16T19:26:20.098Z,100678.72
2023-03-16T19:31:24.326Z,100673.06
2023-03-16T19:36:30.666Z,100663.44
2023-03-16T19:41:34.881Z,100665.94
2023-03-16T19:46:36.582Z,100655.13
2023-03-16T19:51:38.202Z,100659.94
2023-03-16T19:56:40.164Z,100654.16
2023-03-16T20:01:42.112Z,100663.25
2023-03-16T20:06:43.898Z,100657.56
2023-03-16T20:11:47.094Z,100673.50
2023-03-16T20:16:49.222Z,100663.66
2023-03-16T20:21:51.363Z,100653.50
2023-03-16T20:26:54.083Z,100665.06
2023-03-16T20:31:56.200Z,100669.00
2023-03-16T20:36:58.068Z,100657.25
2023-03-16T20:41:59.762Z,100654.91
2023-03-16T20:47:01.434Z,100641.84
2023-03-16T20:52:03.989Z,100652.00
2023-03-16T20:57:24.462Z,100628.69
2023-03-16T21:02:32.088Z,100643.03
2023-03-16T21:07:33.995Z,100636.88
2023-03-16T21:12:36.448Z,100617.06
2023-03-16T21:17:39.625Z,100617.78
2023-03-16T21:22:41.465Z,100615.44
2023-03-16T21:27:43.244Z,100614.66
2023-03-16T21:32:44.968Z,100605.19
2023-03-16T21:37:46.652Z,100582.84
2023-03-16T21:42:48.641Z,100593.44
2023-03-16T21:47:50.284Z,100605.28
2023-03-16T21:52:52.516Z,100601.13
2023-03-16T21:57:54.407Z,100610.59
2023-03-16T22:02:58.354Z,100592.66
2023-03-16T22:08:02.020Z,100596.38
2023-03-16T22:13:03.833Z,100584.84
2023-03-16T22:18:10.950Z,100575.34
2023-03-16T22:23:23.092Z,100576.94
2023-03-16T22:28:25.832Z,100569.34
2023-03-16T22:33:30.061Z,100566.03
2023-03-16T22:38:31.884Z,100558.97
2023-03-16T22:43:36.014Z,100548.94
2023-03-16T22:48:37.639Z,100542.53
2023-03-16T22:53:41.850Z,100539.66
2023-03-16T22:58:45.875Z,100533.66
2023-03-16T23:03:50.036Z,100522.44
2023-03-16T23:08:51.759Z,100530.88
2023-03-16T23:13:54.234Z,100535.47
2023-03-16T23:18:56.499Z,100526.59
2023-03-16T23:24:04.108Z,100533.88
2023-03-16T23:29:06.659Z,100529.19
2023-03-16T23:34:17.120Z,100527.88
2023-03-16T23:39:20.240Z,100507.78
2023-03-16T23:44:25.223Z,100513.69
2023-03-16T23:49:31.105Z,100503.75
2023-03-16T23:54:33.322Z,100489.97
2023-03-16T23:59:34.982Z,100488.88
